sensor_id;sensor_type;location;lat;lon;timestamp;P1;durP1;ratioP1;P2;durP2;ratioP2
54953;SDS011;40855;51.072;5.402;2023-02-01T00:01:54;24.77;;;4.28;;
54953;SDS011;40855;51.072;5.402;2023-02-01T00:04:21;20.73;;;5.15;;
54953;SDS011;40855;51.072;5.402;2023-02-01T00:06:47;30.50;;;5.18;;
54953;SDS011;40855;51.072;5.402;2023-02-01T00:09:13;17.65;;;4.70;;
54953;SDS011;40855;51.072;5.402;2023-02-01T00:11:39;14.70;;;5.40;;
54953;SDS011;40855;51.072;5.402;2023-02-01T00:14:05;25.45;;;4.20;;
54953;SDS011;40855;51.072;5.402;2023-02-01T00:16:31;18.85;;;4.10;;
54953;SDS011;40855;51.072;5.402;2023-02-01T00:19:07;15.18;;;4.32;;
54953;SDS011;40855;51.072;5.402;2023-02-01T00:21:36;17.02;;;4.03;;
54953;SDS011;40855;51.072;5.402;2023-02-01T00:24:02;18.52;;;6.07;;
54953;SDS011;40855;51.072;5.402;2023-02-01T00:26:38;24.35;;;4.60;;
54953;SDS011;40855;51.072;5.402;2023-02-01T00:29:07;18.20;;;3.80;;
54953;SDS011;40855;51.072;5.402;2023-02-01T00:31:37;15.02;;;4.45;;
54953;SDS011;40855;51.072;5.402;2023-02-01T00:34:03;23.23;;;4.63;;
54953;SDS011;40855;51.072;5.402;2023-02-01T00:36:29;28.30;;;5.07;;
54953;SDS011;40855;51.072;5.402;2023-02-01T00:38:55;20.25;;;5.47;;
54953;SDS011;40855;51.072;5.402;2023-02-01T00:41:21;20.15;;;4.70;;
54953;SDS011;40855;51.072;5.402;2023-02-01T00:43:47;22.23;;;4.43;;
54953;SDS011;40855;51.072;5.402;2023-02-01T00:46:14;21.23;;;4.82;;
54953;SDS011;40855;51.072;5.402;2023-02-01T00:48:41;20.77;;;4.93;;
54953;SDS011;40855;51.072;5.402;2023-02-01T00:51:08;18.45;;;4.05;;
54953;SDS011;40855;51.072;5.402;2023-02-01T00:53:38;29.98;;;5.80;;
54953;SDS011;40855;51.072;5.402;2023-02-01T00:56:04;29.15;;;5.40;;
54953;SDS011;40855;51.072;5.402;2023-02-01T00:58:30;29.10;;;5.07;;
54953;SDS011;40855;51.072;5.402;2023-02-01T01:01:07;21.45;;;5.65;;
54953;SDS011;40855;51.072;5.402;2023-02-01T01:03:52;21.60;;;5.53;;
54953;SDS011;40855;51.072;5.402;2023-02-01T01:06:22;27.73;;;5.18;;
54953;SDS011;40855;51.072;5.402;2023-02-01T01:08:51;23.73;;;5.30;;
54953;SDS011;40855;51.072;5.402;2023-02-01T01:11:19;15.80;;;4.50;;
54953;SDS011;40855;51.072;5.402;2023-02-01T01:13:47;18.35;;;5.05;;
54953;SDS011;40855;51.072;5.402;2023-02-01T01:16:14;18.02;;;4.30;;
54953;SDS011;40855;51.072;5.402;2023-02-01T01:18:40;23.13;;;4.78;;
54953;SDS011;40855;51.072;5.402;2023-02-01T01:21:07;17.85;;;4.40;;
54953;SDS011;40855;51.072;5.402;2023-02-01T01:23:34;16.67;;;4.85;;
54953;SDS011;40855;51.072;5.402;2023-02-01T01:26:00;20.60;;;4.97;;
54953;SDS011;40855;51.072;5.402;2023-02-01T01:28:34;15.90;;;4.70;;
54953;SDS011;40855;51.072;5.402;2023-02-01T01:30:59;30.33;;;4.22;;
54953;SDS011;40855;51.072;5.402;2023-02-01T01:33:25;19.95;;;4.38;;
54953;SDS011;40855;51.072;5.402;2023-02-01T01:35:51;15.93;;;4.40;;
54953;SDS011;40855;51.072;5.402;2023-02-01T01:38:17;25.00;;;5.25;;
54953;SDS011;40855;51.072;5.402;2023-02-01T01:40:46;31.65;;;6.35;;
54953;SDS011;40855;51.072;5.402;2023-02-01T01:43:15;19.90;;;4.38;;
54953;SDS011;40855;51.072;5.402;2023-02-01T01:45:42;20.83;;;4.00;;
54953;SDS011;40855;51.072;5.402;2023-02-01T01:48:13;14.30;;;3.67;;
54953;SDS011;40855;51.072;5.402;2023-02-01T01:50:56;21.02;;;5.25;;
54953;SDS011;40855;51.072;5.402;2023-02-01T01:53:30;18.13;;;4.10;;
54953;SDS011;40855;51.072;5.402;2023-02-01T01:56:00;14.30;;;3.90;;
54953;SDS011;40855;51.072;5.402;2023-02-01T01:58:27;25.33;;;5.05;;
54953;SDS011;40855;51.072;5.402;2023-02-01T02:00:55;17.88;;;4.20;;
54953;SDS011;40855;51.072;5.402;2023-02-01T02:03:22;16.08;;;3.47;;
54953;SDS011;40855;51.072;5.402;2023-02-01T02:05:55;21.27;;;3.65;;
54953;SDS011;40855;51.072;5.402;2023-02-01T02:08:24;27.75;;;3.88;;
54953;SDS011;40855;51.072;5.402;2023-02-01T02:10:52;15.63;;;3.13;;
54953;SDS011;40855;51.072;5.402;2023-02-01T02:13:34;28.05;;;4.30;;
54953;SDS011;40855;51.072;5.402;2023-02-01T02:16:16;20.85;;;4.28;;
54953;SDS011;40855;51.072;5.402;2023-02-01T02:27:31;26.23;;;4.63;;
54953;SDS011;40855;51.072;5.402;2023-02-01T02:44:07;24.20;;;3.22;;
54953;SDS011;40855;51.072;5.402;2023-02-01T02:47:00;15.88;;;3.70;;
54953;SDS011;40855;51.072;5.402;2023-02-01T02:49:52;20.98;;;3.65;;
54953;SDS011;40855;51.072;5.402;2023-02-01T02:53:04;27.50;;;4.38;;
54953;SDS011;40855;51.072;5.402;2023-02-01T02:55:57;31.20;;;5.03;;
54953;SDS011;40855;51.072;5.402;2023-02-01T02:58:43;24.38;;;3.92;;
54953;SDS011;40855;51.072;5.402;2023-02-01T03:01:30;26.20;;;4.78;;
54953;SDS011;40855;51.072;5.402;2023-02-01T03:04:15;19.35;;;4.35;;
54953;SDS011;40855;51.072;5.402;2023-02-01T03:06:43;25.70;;;4.75;;
54953;SDS011;40855;51.072;5.402;2023-02-01T03:09:13;15.20;;;2.42;;
54953;SDS011;40855;51.072;5.402;2023-02-01T03:12:02;16.90;;;2.83;;
54953;SDS011;40855;51.072;5.402;2023-02-01T03:14:51;24.05;;;3.67;;
54953;SDS011;40855;51.072;5.402;2023-02-01T03:17:22;23.80;;;2.78;;
54953;SDS011;40855;51.072;5.402;2023-02-01T03:19:55;24.90;;;3.17;;
54953;SDS011;40855;51.072;5.402;2023-02-01T03:22:27;22.92;;;3.42;;
54953;SDS011;40855;51.072;5.402;2023-02-01T03:24:59;13.32;;;2.78;;
54953;SDS011;40855;51.072;5.402;2023-02-01T03:27:34;28.80;;;4.97;;
54953;SDS011;40855;51.072;5.402;2023-02-01T03:32:49;29.63;;;4.20;;
54953;SDS011;40855;51.072;5.402;2023-02-01T03:35:28;9.38;;;1.88;;
54953;SDS011;40855;51.072;5.402;2023-02-01T03:38:12;17.00;;;3.00;;
54953;SDS011;40855;51.072;5.402;2023-02-01T03:40:56;21.00;;;2.38;;
54953;SDS011;40855;51.072;5.402;2023-02-01T03:43:29;22.38;;;3.42;;
54953;SDS011;40855;51.072;5.402;2023-02-01T03:46:07;19.98;;;3.00;;
54953;SDS011;40855;51.072;5.402;2023-02-01T03:48:37;21.40;;;3.17;;
54953;SDS011;40855;51.072;5.402;2023-02-01T03:51:04;17.17;;;2.42;;
54953;SDS011;40855;51.072;5.402;2023-02-01T03:53:32;21.05;;;3.13;;
54953;SDS011;40855;51.072;5.402;2023-02-01T03:56:01;22.38;;;3.72;;
54953;SDS011;40855;51.072;5.402;2023-02-01T03:58:28;15.30;;;1.95;;
54953;SDS011;40855;51.072;5.402;2023-02-01T04:00:54;6.00;;;1.83;;
54953;SDS011;40855;51.072;5.402;2023-02-01T04:03:25;26.08;;;3.35;;
54953;SDS011;40855;51.072;5.402;2023-02-01T04:05:52;17.75;;;2.95;;
54953;SDS011;40855;51.072;5.402;2023-02-01T04:08:22;14.15;;;2.92;;
54953;SDS011;40855;51.072;5.402;2023-02-01T04:10:49;24.20;;;2.42;;
54953;SDS011;40855;51.072;5.402;2023-02-01T04:13:15;21.08;;;2.97;;
54953;SDS011;40855;51.072;5.402;2023-02-01T04:15:41;22.55;;;3.22;;
54953;SDS011;40855;51.072;5.402;2023-02-01T04:18:06;20.45;;;2.78;;
54953;SDS011;40855;51.072;5.402;2023-02-01T04:20:32;13.88;;;3.30;;
54953;SDS011;40855;51.072;5.402;2023-02-01T04:22:58;12.63;;;2.05;;
54953;SDS011;40855;51.072;5.402;2023-02-01T04:25:24;19.23;;;3.22;;
54953;SDS011;40855;51.072;5.402;2023-02-01T04:27:49;14.48;;;3.33;;
54953;SDS011;40855;51.072;5.402;2023-02-01T04:30:15;22.67;;;2.95;;
54953;SDS011;40855;51.072;5.402;2023-02-01T04:32:41;24.08;;;2.85;;
54953;SDS011;40855;51.072;5.402;2023-02-01T04:35:07;39.85;;;3.40;;
54953;SDS011;40855;51.072;5.402;2023-02-01T04:37:33;12.77;;;2.58;;
54953;SDS011;40855;51.072;5.402;2023-02-01T04:40:00;16.77;;;2.67;;
54953;SDS011;40855;51.072;5.402;2023-02-01T04:42:27;17.95;;;2.40;;
54953;SDS011;40855;51.072;5.402;2023-02-01T04:44:52;8.30;;;2.08;;
54953;SDS011;40855;51.072;5.402;2023-02-01T04:47:18;12.57;;;1.02;;
54953;SDS011;40855;51.072;5.402;2023-02-01T04:49:43;29.67;;;3.78;;
54953;SDS011;40855;51.072;5.402;2023-02-01T04:52:09;39.70;;;3.50;;
54953;SDS011;40855;51.072;5.402;2023-02-01T04:54:35;11.57;;;2.35;;
54953;SDS011;40855;51.072;5.402;2023-02-01T04:57:00;22.23;;;3.05;;
54953;SDS011;40855;51.072;5.402;2023-02-01T04:59:26;19.80;;;2.45;;
54953;SDS011;40855;51.072;5.402;2023-02-01T05:01:53;25.48;;;3.28;;
54953;SDS011;40855;51.072;5.402;2023-02-01T05:04:19;19.20;;;3.05;;
54953;SDS011;40855;51.072;5.402;2023-02-01T05:06:45;15.52;;;2.90;;
54953;SDS011;40855;51.072;5.402;2023-02-01T05:09:10;26.17;;;2.90;;
54953;SDS011;40855;51.072;5.402;2023-02-01T05:11:36;22.17;;;3.30;;
54953;SDS011;40855;51.072;5.402;2023-02-01T05:14:20;21.00;;;3.55;;
54953;SDS011;40855;51.072;5.402;2023-02-01T05:16:46;19.65;;;2.88;;
54953;SDS011;40855;51.072;5.402;2023-02-01T05:19:12;16.75;;;2.83;;
54953;SDS011;40855;51.072;5.402;2023-02-01T05:21:38;22.63;;;3.17;;
54953;SDS011;40855;51.072;5.402;2023-02-01T05:24:03;18.38;;;3.75;;
54953;SDS011;40855;51.072;5.402;2023-02-01T05:26:39;24.38;;;1.85;;
54953;SDS011;40855;51.072;5.402;2023-02-01T05:29:06;16.90;;;2.47;;
54953;SDS011;40855;51.072;5.402;2023-02-01T05:31:32;15.02;;;3.22;;
54953;SDS011;40855;51.072;5.402;2023-02-01T05:33:58;15.68;;;3.22;;
54953;SDS011;40855;51.072;5.402;2023-02-01T05:36:24;22.45;;;2.63;;
54953;SDS011;40855;51.072;5.402;2023-02-01T05:38:49;11.52;;;2.15;;
54953;SDS011;40855;51.072;5.402;2023-02-01T05:41:15;22.17;;;2.97;;
54953;SDS011;40855;51.072;5.402;2023-02-01T05:43:41;21.38;;;3.78;;
54953;SDS011;40855;51.072;5.402;2023-02-01T05:46:06;23.08;;;3.20;;
54953;SDS011;40855;51.072;5.402;2023-02-01T05:48:35;27.15;;;3.58;;
54953;SDS011;40855;51.072;5.402;2023-02-01T05:51:01;23.95;;;3.17;;
54953;SDS011;40855;51.072;5.402;2023-02-01T05:53:27;14.93;;;2.85;;
54953;SDS011;40855;51.072;5.402;2023-02-01T05:55:52;12.10;;;1.70;;
54953;SDS011;40855;51.072;5.402;2023-02-01T05:58:18;24.85;;;2.83;;
54953;SDS011;40855;51.072;5.402;2023-02-01T06:00:44;19.63;;;2.35;;
54953;SDS011;40855;51.072;5.402;2023-02-01T06:03:09;18.17;;;2.95;;
54953;SDS011;40855;51.072;5.402;2023-02-01T06:05:35;7.28;;;1.35;;
54953;SDS011;40855;51.072;5.402;2023-02-01T06:08:02;15.20;;;2.28;;
54953;SDS011;40855;51.072;5.402;2023-02-01T06:10:27;28.10;;;3.25;;
54953;SDS011;40855;51.072;5.402;2023-02-01T06:12:53;24.73;;;2.92;;
54953;SDS011;40855;51.072;5.402;2023-02-01T06:15:19;8.40;;;1.52;;
54953;SDS011;40855;51.072;5.402;2023-02-01T06:17:45;16.08;;;2.58;;
54953;SDS011;40855;51.072;5.402;2023-02-01T06:20:12;21.33;;;3.60;;
54953;SDS011;40855;51.072;5.402;2023-02-01T06:22:39;23.08;;;3.00;;
54953;SDS011;40855;51.072;5.402;2023-02-01T06:25:06;16.92;;;2.78;;
54953;SDS011;40855;51.072;5.402;2023-02-01T06:27:33;22.90;;;2.65;;
54953;SDS011;40855;51.072;5.402;2023-02-01T06:29:59;19.63;;;2.67;;
54953;SDS011;40855;51.072;5.402;2023-02-01T06:32:25;32.63;;;3.70;;
54953;SDS011;40855;51.072;5.402;2023-02-01T06:34:50;29.13;;;3.70;;
54953;SDS011;40855;51.072;5.402;2023-02-01T06:37:20;31.00;;;3.28;;
54953;SDS011;40855;51.072;5.402;2023-02-01T06:39:48;19.55;;;2.63;;
54953;SDS011;40855;51.072;5.402;2023-02-01T06:42:14;25.50;;;3.08;;
54953;SDS011;40855;51.072;5.402;2023-02-01T06:44:39;21.90;;;3.20;;
54953;SDS011;40855;51.072;5.402;2023-02-01T06:47:05;24.13;;;4.18;;
54953;SDS011;40855;51.072;5.402;2023-02-01T06:49:31;14.40;;;3.45;;
54953;SDS011;40855;51.072;5.402;2023-02-01T06:51:57;17.85;;;3.22;;
54953;SDS011;40855;51.072;5.402;2023-02-01T06:54:25;11.05;;;2.10;;
54953;SDS011;40855;51.072;5.402;2023-02-01T06:56:52;12.35;;;2.53;;
54953;SDS011;40855;51.072;5.402;2023-02-01T06:59:17;24.15;;;3.45;;
54953;SDS011;40855;51.072;5.402;2023-02-01T07:01:43;31.73;;;3.20;;
54953;SDS011;40855;51.072;5.402;2023-02-01T07:04:12;30.85;;;2.75;;
54953;SDS011;40855;51.072;5.402;2023-02-01T07:06:38;26.38;;;3.22;;
54953;SDS011;40855;51.072;5.402;2023-02-01T07:09:04;31.77;;;4.45;;
54953;SDS011;40855;51.072;5.402;2023-02-01T07:11:31;24.70;;;2.65;;
54953;SDS011;40855;51.072;5.402;2023-02-01T07:13:57;9.65;;;2.20;;
54953;SDS011;40855;51.072;5.402;2023-02-01T07:16:23;24.83;;;3.28;;
54953;SDS011;40855;51.072;5.402;2023-02-01T07:18:49;10.05;;;2.17;;
54953;SDS011;40855;51.072;5.402;2023-02-01T07:21:15;19.10;;;2.47;;
54953;SDS011;40855;51.072;5.402;2023-02-01T07:23:42;15.02;;;2.40;;
54953;SDS011;40855;51.072;5.402;2023-02-01T07:26:09;16.25;;;2.42;;
54953;SDS011;40855;51.072;5.402;2023-02-01T07:28:37;20.88;;;3.30;;
54953;SDS011;40855;51.072;5.402;2023-02-01T07:31:10;21.85;;;2.92;;
54953;SDS011;40855;51.072;5.402;2023-02-01T07:33:40;26.15;;;2.72;;
54953;SDS011;40855;51.072;5.402;2023-02-01T07:36:07;12.18;;;2.80;;
54953;SDS011;40855;51.072;5.402;2023-02-01T07:38:35;16.42;;;2.75;;
54953;SDS011;40855;51.072;5.402;2023-02-01T07:41:04;6.43;;;2.05;;
54953;SDS011;40855;51.072;5.402;2023-02-01T07:43:31;15.27;;;2.70;;
54953;SDS011;40855;51.072;5.402;2023-02-01T07:45:58;25.80;;;4.20;;
54953;SDS011;40855;51.072;5.402;2023-02-01T07:48:24;4.40;;;1.15;;
54953;SDS011;40855;51.072;5.402;2023-02-01T07:50:58;24.23;;;2.60;;
54953;SDS011;40855;51.072;5.402;2023-02-01T07:53:24;26.25;;;3.42;;
54953;SDS011;40855;51.072;5.402;2023-02-01T07:55:50;15.10;;;2.90;;
54953;SDS011;40855;51.072;5.402;2023-02-01T07:58:16;19.55;;;2.63;;
54953;SDS011;40855;51.072;5.402;2023-02-01T08:00:41;28.13;;;3.15;;
54953;SDS011;40855;51.072;5.402;2023-02-01T08:03:26;23.90;;;3.30;;
54953;SDS011;40855;51.072;5.402;2023-02-01T08:05:55;11.07;;;2.00;;
54953;SDS011;40855;51.072;5.402;2023-02-01T08:08:21;30.08;;;3.90;;
54953;SDS011;40855;51.072;5.402;2023-02-01T08:10:47;14.10;;;2.25;;
54953;SDS011;40855;51.072;5.402;2023-02-01T08:13:13;16.33;;;2.67;;
54953;SDS011;40855;51.072;5.402;2023-02-01T08:15:39;15.60;;;2.53;;
54953;SDS011;40855;51.072;5.402;2023-02-01T08:18:05;30.73;;;4.65;;
54953;SDS011;40855;51.072;5.402;2023-02-01T08:20:30;20.02;;;3.20;;
54953;SDS011;40855;51.072;5.402;2023-02-01T08:22:56;19.52;;;3.13;;
54953;SDS011;40855;51.072;5.402;2023-02-01T08:25:23;10.13;;;1.50;;
54953;SDS011;40855;51.072;5.402;2023-02-01T08:27:49;18.73;;;2.75;;
54953;SDS011;40855;51.072;5.402;2023-02-01T08:30:15;8.50;;;2.45;;
54953;SDS011;40855;51.072;5.402;2023-02-01T08:32:41;13.77;;;2.55;;
54953;SDS011;40855;51.072;5.402;2023-02-01T08:35:07;17.10;;;2.55;;
54953;SDS011;40855;51.072;5.402;2023-02-01T08:37:33;27.45;;;2.90;;
54953;SDS011;40855;51.072;5.402;2023-02-01T08:39:59;23.73;;;3.03;;
54953;SDS011;40855;51.072;5.402;2023-02-01T08:42:24;24.58;;;3.30;;
54953;SDS011;40855;51.072;5.402;2023-02-01T08:45:09;23.23;;;3.08;;
54953;SDS011;40855;51.072;5.402;2023-02-01T08:47:35;20.38;;;3.35;;
54953;SDS011;40855;51.072;5.402;2023-02-01T08:50:01;25.48;;;3.20;;
54953;SDS011;40855;51.072;5.402;2023-02-01T08:52:26;18.60;;;2.08;;
54953;SDS011;40855;51.072;5.402;2023-02-01T08:54:52;24.77;;;3.05;;
54953;SDS011;40855;51.072;5.402;2023-02-01T08:57:18;14.15;;;1.98;;
54953;SDS011;40855;51.072;5.402;2023-02-01T08:59:43;23.80;;;3.40;;
54953;SDS011;40855;51.072;5.402;2023-02-01T09:02:13;26.45;;;3.00;;
54953;SDS011;40855;51.072;5.402;2023-02-01T09:04:40;27.45;;;2.97;;
54953;SDS011;40855;51.072;5.402;2023-02-01T09:07:06;19.58;;;2.08;;
54953;SDS011;40855;51.072;5.402;2023-02-01T09:09:33;10.73;;;2.80;;
54953;SDS011;40855;51.072;5.402;2023-02-01T09:11:58;16.58;;;2.97;;
54953;SDS011;40855;51.072;5.402;2023-02-01T09:14:24;11.90;;;1.90;;
54953;SDS011;40855;51.072;5.402;2023-02-01T09:16:50;13.32;;;2.30;;
54953;SDS011;40855;51.072;5.402;2023-02-01T09:19:16;18.95;;;2.72;;
54953;SDS011;40855;51.072;5.402;2023-02-01T09:21:42;14.45;;;2.70;;
54953;SDS011;40855;51.072;5.402;2023-02-01T09:24:09;12.48;;;3.03;;
54953;SDS011;40855;51.072;5.402;2023-02-01T09:26:36;23.70;;;3.78;;
54953;SDS011;40855;51.072;5.402;2023-02-01T09:29:02;11.65;;;3.20;;
54953;SDS011;40855;51.072;5.402;2023-02-01T09:31:31;20.50;;;3.00;;
54953;SDS011;40855;51.072;5.402;2023-02-01T09:33:57;17.17;;;1.45;;
54953;SDS011;40855;51.072;5.402;2023-02-01T09:36:23;22.90;;;2.65;;
54953;SDS011;40855;51.072;5.402;2023-02-01T09:38:49;16.75;;;2.50;;
54953;SDS011;40855;51.072;5.402;2023-02-01T09:41:23;16.00;;;3.33;;
54953;SDS011;40855;51.072;5.402;2023-02-01T09:46:47;12.23;;;1.70;;
54953;SDS011;40855;51.072;5.402;2023-02-01T09:49:15;23.95;;;2.75;;
54953;SDS011;40855;51.072;5.402;2023-02-01T09:51:46;16.95;;;3.10;;
54953;SDS011;40855;51.072;5.402;2023-02-01T09:59:56;17.45;;;3.28;;
54953;SDS011;40855;51.072;5.402;2023-02-01T10:02:27;21.20;;;2.15;;
54953;SDS011;40855;51.072;5.402;2023-02-01T10:04:56;16.52;;;3.28;;
54953;SDS011;40855;51.072;5.402;2023-02-01T10:08:25;20.65;;;2.80;;
54953;SDS011;40855;51.072;5.402;2023-02-01T10:10:30;19.83;;;3.00;;
54953;SDS011;40855;51.072;5.402;2023-02-01T10:23:35;14.90;;;2.47;;
54953;SDS011;40855;51.072;5.402;2023-02-01T10:26:29;12.07;;;2.05;;
54953;SDS011;40855;51.072;5.402;2023-02-01T10:28:59;8.20;;;1.30;;
54953;SDS011;40855;51.072;5.402;2023-02-01T10:31:28;13.93;;;1.88;;
54953;SDS011;40855;51.072;5.402;2023-02-01T10:33:59;25.60;;;3.38;;
54953;SDS011;40855;51.072;5.402;2023-02-01T10:36:35;26.33;;;2.72;;
54953;SDS011;40855;51.072;5.402;2023-02-01T10:39:04;25.65;;;3.38;;
54953;SDS011;40855;51.072;5.402;2023-02-01T10:41:33;13.50;;;2.90;;
54953;SDS011;40855;51.072;5.402;2023-02-01T10:44:02;19.05;;;2.65;;
54953;SDS011;40855;51.072;5.402;2023-02-01T10:46:31;10.48;;;2.00;;
54953;SDS011;40855;51.072;5.402;2023-02-01T10:49:00;18.77;;;2.40;;
54953;SDS011;40855;51.072;5.402;2023-02-01T10:51:30;7.70;;;2.03;;
54953;SDS011;40855;51.072;5.402;2023-02-01T10:54:11;18.98;;;2.33;;
54953;SDS011;40855;51.072;5.402;2023-02-01T10:56:43;5.28;;;1.40;;
54953;SDS011;40855;51.072;5.402;2023-02-01T10:59:19;27.60;;;3.67;;
54953;SDS011;40855;51.072;5.402;2023-02-01T11:01:49;7.93;;;1.67;;
54953;SDS011;40855;51.072;5.402;2023-02-01T11:04:19;14.30;;;2.47;;
54953;SDS011;40855;51.072;5.402;2023-02-01T11:06:50;20.25;;;2.88;;
54953;SDS011;40855;51.072;5.402;2023-02-01T11:09:40;8.95;;;2.15;;
54953;SDS011;40855;51.072;5.402;2023-02-01T11:12:20;16.33;;;2.05;;
54953;SDS011;40855;51.072;5.402;2023-02-01T11:15:13;15.80;;;2.58;;
54953;SDS011;40855;51.072;5.402;2023-02-01T11:17:44;22.60;;;3.60;;
54953;SDS011;40855;51.072;5.402;2023-02-01T11:20:23;21.02;;;2.83;;
54953;SDS011;40855;51.072;5.402;2023-02-01T11:25:22;17.17;;;1.92;;
54953;SDS011;40855;51.072;5.402;2023-02-01T11:27:49;26.23;;;2.40;;
54953;SDS011;40855;51.072;5.402;2023-02-01T11:30:17;11.55;;;1.88;;
54953;SDS011;40855;51.072;5.402;2023-02-01T11:32:49;25.20;;;3.35;;
54953;SDS011;40855;51.072;5.402;2023-02-01T11:35:18;9.40;;;2.45;;
54953;SDS011;40855;51.072;5.402;2023-02-01T11:37:48;14.13;;;2.85;;
54953;SDS011;40855;51.072;5.402;2023-02-01T11:40:29;11.90;;;1.95;;
54953;SDS011;40855;51.072;5.402;2023-02-01T11:43:51;17.73;;;2.70;;
54953;SDS011;40855;51.072;5.402;2023-02-01T11:45:54;9.10;;;1.73;;
54953;SDS011;40855;51.072;5.402;2023-02-01T11:48:20;15.82;;;2.67;;
54953;SDS011;40855;51.072;5.402;2023-02-01T11:53:41;17.27;;;2.55;;
54953;SDS011;40855;51.072;5.402;2023-02-01T11:58:54;4.78;;;1.70;;
54953;SDS011;40855;51.072;5.402;2023-02-01T12:07:13;10.57;;;2.42;;
54953;SDS011;40855;51.072;5.402;2023-02-01T12:10:02;13.48;;;2.00;;
54953;SDS011;40855;51.072;5.402;2023-02-01T12:15:44;6.53;;;1.30;;
54953;SDS011;40855;51.072;5.402;2023-02-01T12:21:03;15.48;;;1.98;;
54953;SDS011;40855;51.072;5.402;2023-02-01T12:32:22;6.75;;;1.38;;
54953;SDS011;40855;51.072;5.402;2023-02-01T12:37:36;5.15;;;1.42;;
54953;SDS011;40855;51.072;5.402;2023-02-01T12:46:39;13.18;;;2.97;;
54953;SDS011;40855;51.072;5.402;2023-02-01T12:49:16;14.93;;;1.77;;
54953;SDS011;40855;51.072;5.402;2023-02-01T12:52:07;9.02;;;1.83;;
54953;SDS011;40855;51.072;5.402;2023-02-01T12:54:57;13.95;;;2.08;;
54953;SDS011;40855;51.072;5.402;2023-02-01T12:57:32;16.10;;;2.17;;
54953;SDS011;40855;51.072;5.402;2023-02-01T13:02:55;12.98;;;2.33;;
54953;SDS011;40855;51.072;5.402;2023-02-01T13:06:04;7.32;;;1.67;;
54953;SDS011;40855;51.072;5.402;2023-02-01T13:11:24;12.85;;;1.30;;
54953;SDS011;40855;51.072;5.402;2023-02-01T13:16:49;10.90;;;1.83;;
54953;SDS011;40855;51.072;5.402;2023-02-01T13:19:28;7.72;;;1.60;;
54953;SDS011;40855;51.072;5.402;2023-02-01T13:23:01;10.63;;;2.33;;
54953;SDS011;40855;51.072;5.402;2023-02-01T13:25:47;10.38;;;2.40;;
54953;SDS011;40855;51.072;5.402;2023-02-01T13:27:58;12.32;;;1.45;;
54953;SDS011;40855;51.072;5.402;2023-02-01T13:30:37;13.90;;;1.98;;
54953;SDS011;40855;51.072;5.402;2023-02-01T13:33:15;9.80;;;1.63;;
54953;SDS011;40855;51.072;5.402;2023-02-01T13:35:53;10.80;;;1.42;;
54953;SDS011;40855;51.072;5.402;2023-02-01T13:41:29;4.20;;;1.63;;
54953;SDS011;40855;51.072;5.402;2023-02-01T13:44:19;13.27;;;1.67;;
54953;SDS011;40855;51.072;5.402;2023-02-01T13:46:53;9.68;;;1.67;;
54953;SDS011;40855;51.072;5.402;2023-02-01T13:49:26;21.38;;;2.78;;
54953;SDS011;40855;51.072;5.402;2023-02-01T13:51:55;14.13;;;1.77;;
54953;SDS011;40855;51.072;5.402;2023-02-01T13:54:32;10.23;;;2.00;;
54953;SDS011;40855;51.072;5.402;2023-02-01T13:57:02;8.65;;;1.50;;
54953;SDS011;40855;51.072;5.402;2023-02-01T14:05:09;13.68;;;1.70;;
54953;SDS011;40855;51.072;5.402;2023-02-01T14:07:36;9.10;;;1.40;;
54953;SDS011;40855;51.072;5.402;2023-02-01T14:26:26;13.55;;;1.67;;
54953;SDS011;40855;51.072;5.402;2023-02-01T14:28:57;16.17;;;1.55;;
54953;SDS011;40855;51.072;5.402;2023-02-01T14:31:37;10.15;;;2.47;;
54953;SDS011;40855;51.072;5.402;2023-02-01T14:34:50;5.65;;;1.20;;
54953;SDS011;40855;51.072;5.402;2023-02-01T14:37:02;13.10;;;1.27;;
54953;SDS011;40855;51.072;5.402;2023-02-01T14:39:49;11.50;;;1.17;;
54953;SDS011;40855;51.072;5.402;2023-02-01T14:44:47;10.15;;;1.23;;
54953;SDS011;40855;51.072;5.402;2023-02-01T14:49:54;8.82;;;0.90;;
54953;SDS011;40855;51.072;5.402;2023-02-01T14:52:21;7.18;;;1.05;;
54953;SDS011;40855;51.072;5.402;2023-02-01T14:54:54;10.70;;;1.88;;
54953;SDS011;40855;51.072;5.402;2023-02-01T14:57:25;16.88;;;2.13;;
54953;SDS011;40855;51.072;5.402;2023-02-01T15:00:38;11.10;;;1.77;;
54953;SDS011;40855;51.072;5.402;2023-02-01T15:02:48;14.52;;;1.70;;
54953;SDS011;40855;51.072;5.402;2023-02-01T15:05:26;9.13;;;1.65;;
54953;SDS011;40855;51.072;5.402;2023-02-01T15:08:05;12.65;;;1.70;;
54953;SDS011;40855;51.072;5.402;2023-02-01T15:10:41;12.07;;;1.60;;
54953;SDS011;40855;51.072;5.402;2023-02-01T15:13:17;6.20;;;1.45;;
54953;SDS011;40855;51.072;5.402;2023-02-01T15:18:36;12.75;;;1.95;;
54953;SDS011;40855;51.072;5.402;2023-02-01T15:21:03;6.30;;;0.88;;
54953;SDS011;40855;51.072;5.402;2023-02-01T15:23:31;9.20;;;2.22;;
54953;SDS011;40855;51.072;5.402;2023-02-01T15:25:57;17.50;;;2.60;;
54953;SDS011;40855;51.072;5.402;2023-02-01T15:28:24;11.82;;;1.42;;
54953;SDS011;40855;51.072;5.402;2023-02-01T15:30:52;20.08;;;2.55;;
54953;SDS011;40855;51.072;5.402;2023-02-01T15:33:21;6.97;;;1.48;;
54953;SDS011;40855;51.072;5.402;2023-02-01T15:35:48;6.63;;;1.20;;
54953;SDS011;40855;51.072;5.402;2023-02-01T15:38:19;9.95;;;1.83;;
54953;SDS011;40855;51.072;5.402;2023-02-01T15:40:58;18.27;;;2.35;;
54953;SDS011;40855;51.072;5.402;2023-02-01T15:43:28;11.73;;;1.67;;
54953;SDS011;40855;51.072;5.402;2023-02-01T15:45:56;9.45;;;1.95;;
54953;SDS011;40855;51.072;5.402;2023-02-01T15:48:24;6.90;;;1.90;;
54953;SDS011;40855;51.072;5.402;2023-02-01T15:50:52;16.92;;;2.25;;
54953;SDS011;40855;51.072;5.402;2023-02-01T15:53:21;13.82;;;2.17;;
54953;SDS011;40855;51.072;5.402;2023-02-01T15:55:53;10.77;;;1.73;;
54953;SDS011;40855;51.072;5.402;2023-02-01T15:58:22;13.77;;;2.30;;
54953;SDS011;40855;51.072;5.402;2023-02-01T16:00:59;6.93;;;1.30;;
54953;SDS011;40855;51.072;5.402;2023-02-01T16:03:35;9.82;;;1.25;;
54953;SDS011;40855;51.072;5.402;2023-02-01T16:06:08;9.65;;;2.15;;
54953;SDS011;40855;51.072;5.402;2023-02-01T16:08:55;23.85;;;2.15;;
54953;SDS011;40855;51.072;5.402;2023-02-01T16:11:32;6.00;;;1.33;;
54953;SDS011;40855;51.072;5.402;2023-02-01T16:14:05;7.80;;;1.83;;
54953;SDS011;40855;51.072;5.402;2023-02-01T16:16:31;13.98;;;2.58;;
54953;SDS011;40855;51.072;5.402;2023-02-01T16:18:56;9.02;;;2.00;;
54953;SDS011;40855;51.072;5.402;2023-02-01T16:21:22;10.38;;;1.50;;
54953;SDS011;40855;51.072;5.402;2023-02-01T16:23:51;18.10;;;2.70;;
54953;SDS011;40855;51.072;5.402;2023-02-01T16:26:18;5.45;;;1.42;;
54953;SDS011;40855;51.072;5.402;2023-02-01T16:28:44;10.95;;;1.60;;
54953;SDS011;40855;51.072;5.402;2023-02-01T16:31:11;18.95;;;2.45;;
54953;SDS011;40855;51.072;5.402;2023-02-01T16:33:45;17.83;;;2.42;;
54953;SDS011;40855;51.072;5.402;2023-02-01T16:36:12;10.30;;;1.83;;
54953;SDS011;40855;51.072;5.402;2023-02-01T16:38:38;7.38;;;1.48;;
54953;SDS011;40855;51.072;5.402;2023-02-01T16:41:04;11.65;;;1.90;;
54953;SDS011;40855;51.072;5.402;2023-02-01T16:43:30;22.92;;;3.28;;
54953;SDS011;40855;51.072;5.402;2023-02-01T16:45:59;13.13;;;2.47;;
54953;SDS011;40855;51.072;5.402;2023-02-01T16:48:33;6.43;;;1.33;;
54953;SDS011;40855;51.072;5.402;2023-02-01T16:51:01;23.70;;;4.15;;
54953;SDS011;40855;51.072;5.402;2023-02-01T16:53:29;15.73;;;2.60;;
54953;SDS011;40855;51.072;5.402;2023-02-01T16:55:56;15.77;;;3.00;;
54953;SDS011;40855;51.072;5.402;2023-02-01T16:58:22;15.50;;;2.72;;
54953;SDS011;40855;51.072;5.402;2023-02-01T17:00:49;8.70;;;1.75;;